createdAt,value
2018-08-16T07:11:28.492Z,5.20
2018-08-16T07:13:57.339Z,5.50
2018-08-16T07:21:22.628Z,5.10
2018-08-16T07:38:39.727Z,4.70
2018-08-16T07:48:34.246Z,4.30
2018-08-16T07:51:03.089Z,3.95
2018-08-16T07:53:31.988Z,4.20
2018-08-16T08:00:57.078Z,4.30
2018-08-16T08:03:26.420Z,3.45
2018-08-16T08:05:55.208Z,3.30
2018-08-16T08:08:24.279Z,3.25
2018-08-16T08:10:53.567Z,3.45
2018-08-16T08:13:22.582Z,3.50
2018-08-16T08:15:51.467Z,3.40
2018-08-16T08:18:20.305Z,2.80
2018-08-16T08:20:49.497Z,3.63
2018-08-16T08:23:18.327Z,3.20
2018-08-16T08:25:47.212Z,2.93
2018-08-16T08:28:17.186Z,3.10
2018-08-16T08:30:46.050Z,3.40
2018-08-16T08:33:15.068Z,3.23
2018-08-16T08:35:49.578Z,2.97
2018-08-16T08:38:18.745Z,3.20
2018-08-16T08:40:47.647Z,2.97
2018-08-16T08:44:29.305Z,2.93
2018-08-16T08:46:58.113Z,3.30
2018-08-16T08:49:27.010Z,2.90
2018-08-16T08:51:56.072Z,2.83
2018-08-16T08:54:37.220Z,2.80
2018-08-16T08:57:17.108Z,3.03
2018-08-16T08:59:46.136Z,3.00
2018-08-16T09:02:15.382Z,3.47
2018-08-16T09:04:44.204Z,3.17
2018-08-16T09:07:14.711Z,3.37
2018-08-16T09:10:59.428Z,2.70
2018-08-16T09:13:39.752Z,3.70
2018-08-16T09:16:13.173Z,3.77
2018-08-16T09:18:43.300Z,3.47
2018-08-16T09:21:12.781Z,2.93
2018-08-16T09:23:41.597Z,3.07
2018-08-16T09:26:15.694Z,2.83
2018-08-16T09:28:44.620Z,2.83
2018-08-16T09:31:25.154Z,3.47
2018-08-16T09:34:33.780Z,3.30
2018-08-16T09:37:02.762Z,2.77
2018-08-16T09:39:31.469Z,2.90
2018-08-16T09:42:00.824Z,2.97
2018-08-16T09:44:29.949Z,3.07
2018-08-16T09:47:12.571Z,2.33
2018-08-16T09:49:45.846Z,2.43
2018-08-16T09:52:16.421Z,2.47
2018-08-16T09:54:45.219Z,2.57
2018-08-16T09:57:14.948Z,2.60
2018-08-16T09:59:43.847Z,2.90
2018-08-16T10:02:15.150Z,2.23
2018-08-16T10:04:44.147Z,2.70
2018-08-16T10:07:13.247Z,2.00
2018-08-16T10:09:42.203Z,2.33
2018-08-16T10:12:11.709Z,2.63
2018-08-16T10:14:40.605Z,2.50
2018-08-16T10:17:09.549Z,2.20
2018-08-16T10:19:38.472Z,2.03
2018-08-16T10:22:07.532Z,2.50
2018-08-16T10:24:36.656Z,2.70
2018-08-16T10:27:05.788Z,2.10
2018-08-16T10:29:34.772Z,2.27
2018-08-16T10:32:04.043Z,2.40
2018-08-16T10:34:32.939Z,2.40
2018-08-16T10:37:01.666Z,2.57
2018-08-16T10:39:30.344Z,2.40
2018-08-16T10:42:00.018Z,2.00
2018-08-16T10:44:29.063Z,2.23
2018-08-16T10:46:58.093Z,2.00
2018-08-16T10:49:27.205Z,2.80
2018-08-16T10:51:55.880Z,2.23
2018-08-16T10:54:24.672Z,2.30
2018-08-16T10:56:54.031Z,1.70
2018-08-16T10:59:22.861Z,2.43
2018-08-16T11:01:51.815Z,2.17
2018-08-16T11:04:20.577Z,2.17
2018-08-16T11:06:49.483Z,2.20
2018-08-16T11:09:18.318Z,2.30
2018-08-16T11:11:47.253Z,2.00
2018-08-16T11:14:16.240Z,2.00
2018-08-16T11:16:45.357Z,1.90
2018-08-16T11:19:14.470Z,2.23
2018-08-16T11:21:44.154Z,2.73
2018-08-16T11:24:13.449Z,2.20
2018-08-16T11:26:42.516Z,3.07
2018-08-16T11:29:11.641Z,2.40
2018-08-16T11:31:41.052Z,2.40
2018-08-16T11:34:11.100Z,1.90
2018-08-16T11:36:40.392Z,2.43
2018-08-16T11:39:09.424Z,2.40
2018-08-16T11:41:38.404Z,2.30
2018-08-16T11:44:07.462Z,2.57
2018-08-16T11:46:36.322Z,2.30
2018-08-16T11:49:05.319Z,2.30
2018-08-16T11:51:34.727Z,2.10
2018-08-16T11:54:06.569Z,2.13
2018-08-16T11:56:36.002Z,2.30
2018-08-16T11:59:05.180Z,2.13
2018-08-16T12:01:34.356Z,2.30
2018-08-16T12:04:03.322Z,1.90
2018-08-16T12:06:32.010Z,2.17
2018-08-16T12:09:01.225Z,2.13
2018-08-16T12:11:30.923Z,2.30
2018-08-16T12:13:59.927Z,2.30
2018-08-16T12:16:29.081Z,2.43
2018-08-16T12:18:58.127Z,2.20
2018-08-16T12:21:27.301Z,2.37
2018-08-16T12:23:56.161Z,2.13
2018-08-16T12:26:24.844Z,2.13
2018-08-16T12:28:53.811Z,2.30
2018-08-16T12:31:23.924Z,2.50
2018-08-16T12:33:53.064Z,2.67
2018-08-16T12:36:22.781Z,2.27
2018-08-16T12:38:51.793Z,2.10
2018-08-16T12:41:20.882Z,2.30
2018-08-16T12:43:50.416Z,2.60
2018-08-16T12:46:19.733Z,2.33
2018-08-16T12:48:48.375Z,2.70
2018-08-16T12:51:16.952Z,2.70
2018-08-16T12:53:46.264Z,2.77
2018-08-16T12:56:15.251Z,2.30
2018-08-16T12:58:44.317Z,2.70
2018-08-16T13:01:13.292Z,2.60
2018-08-16T13:03:42.166Z,2.57
2018-08-16T13:06:11.254Z,2.87
2018-08-16T13:08:40.319Z,2.00
2018-08-16T13:11:09.407Z,2.47
2018-08-16T13:13:38.438Z,2.80
2018-08-16T13:16:07.679Z,2.53
2018-08-16T13:18:36.992Z,2.50
2018-08-16T13:21:05.829Z,2.10
2018-08-16T13:23:34.765Z,2.43
2018-08-16T13:26:03.426Z,2.40
2018-08-16T13:28:32.281Z,2.77
2018-08-16T13:31:01.231Z,2.93
2018-08-16T13:33:30.975Z,2.73
2018-08-16T13:36:00.410Z,2.80
2018-08-16T13:38:29.388Z,2.50
2018-08-16T13:40:59.349Z,2.97
2018-08-16T13:43:28.580Z,2.30
2018-08-16T13:45:57.232Z,2.87
2018-08-16T13:48:26.143Z,2.67
2018-08-16T13:50:54.864Z,2.60
2018-08-16T13:53:23.901Z,2.53
2018-08-16T13:55:53.053Z,2.70
2018-08-16T13:58:22.083Z,2.93
2018-08-16T14:00:51.341Z,2.77
2018-08-16T14:03:21.216Z,2.03
2018-08-16T14:05:50.214Z,2.40
2018-08-16T14:08:19.480Z,2.70
2018-08-16T14:10:50.280Z,2.43
2018-08-16T14:13:20.442Z,2.37
2018-08-16T14:15:49.330Z,2.40
2018-08-16T14:18:18.898Z,2.63
2018-08-16T14:20:48.299Z,2.67
2018-08-16T14:23:17.361Z,2.17
2018-08-16T14:25:46.495Z,2.80
2018-08-16T14:28:15.435Z,2.70
2018-08-16T14:30:44.571Z,2.07
2018-08-16T14:33:13.754Z,2.23
2018-08-16T14:35:42.552Z,2.37
2018-08-16T14:38:11.708Z,2.67
2018-08-16T14:40:41.195Z,2.07
2018-08-16T14:43:09.905Z,2.40
2018-08-16T14:45:39.283Z,2.33
2018-08-16T14:48:11.113Z,2.30
2018-08-16T14:50:41.308Z,2.30
2018-08-16T14:53:10.779Z,2.50
2018-08-16T14:55:39.764Z,2.10
2018-08-16T14:58:09.419Z,2.80
2018-08-16T15:00:38.394Z,2.47
2018-08-16T15:03:07.718Z,2.83
2018-08-16T15:05:36.615Z,2.33
2018-08-16T15:08:05.661Z,2.40
2018-08-16T15:10:34.962Z,2.23
2018-08-16T15:13:04.074Z,2.40
2018-08-16T15:15:33.237Z,2.40
2018-08-16T15:18:02.294Z,2.60
2018-08-16T15:20:31.403Z,2.40
2018-08-16T15:23:00.538Z,2.87
2018-08-16T15:25:29.367Z,2.60
2018-08-16T15:27:58.428Z,2.10
2018-08-16T15:30:27.263Z,2.57
2018-08-16T15:32:56.123Z,2.40
2018-08-16T15:35:25.888Z,2.33
2018-08-16T15:37:54.691Z,2.50
2018-08-16T15:40:24.561Z,3.13
2018-08-16T15:42:53.269Z,2.50
2018-08-16T15:45:22.324Z,2.47
2018-08-16T15:47:51.240Z,2.33
2018-08-16T15:50:20.135Z,2.70
2018-08-16T15:52:49.148Z,2.50
2018-08-16T15:55:18.564Z,2.67
2018-08-16T15:57:47.643Z,2.80
2018-08-16T16:00:16.534Z,2.50
2018-08-16T16:02:45.267Z,2.67
2018-08-16T16:05:14.213Z,2.43
2018-08-16T16:07:43.101Z,2.37
2018-08-16T16:10:11.937Z,2.83
2018-08-16T16:12:40.959Z,2.97
2018-08-16T16:15:10.567Z,2.80
2018-08-16T16:17:39.903Z,2.60
2018-08-16T16:20:09.416Z,2.47
2018-08-16T16:22:38.477Z,3.10
2018-08-16T16:25:08.085Z,2.90
2018-08-16T16:27:37.186Z,2.67
2018-08-16T16:30:07.826Z,2.50
2018-08-16T16:32:37.177Z,2.17
2018-08-16T16:35:06.596Z,2.10
2018-08-16T16:37:35.537Z,2.33
2018-08-16T16:40:04.794Z,2.93
2018-08-16T16:42:33.732Z,2.60
2018-08-16T16:45:02.673Z,2.37
2018-08-16T16:47:31.356Z,3.10
2018-08-16T16:50:00.268Z,2.87
2018-08-16T16:52:29.278Z,2.80
2018-08-16T16:54:58.117Z,2.80
2018-08-16T16:57:27.214Z,2.87
2018-08-16T16:59:55.772Z,3.00
2018-08-16T17:02:24.500Z,3.10
2018-08-16T17:04:53.879Z,3.30
2018-08-16T17:07:23.282Z,3.50
2018-08-16T17:09:51.813Z,3.20
2018-08-16T17:12:20.378Z,3.60
2018-08-16T17:14:48.892Z,3.20
2018-08-16T17:17:17.388Z,3.50
2018-08-16T17:19:45.863Z,3.00
2018-08-16T17:22:14.512Z,2.67
2018-08-16T17:24:42.955Z,2.97
2018-08-16T17:27:11.468Z,2.60
2018-08-16T17:29:39.970Z,2.97
2018-08-16T17:32:08.681Z,3.70
2018-08-16T17:34:37.102Z,3.20
2018-08-16T17:37:05.685Z,3.40
2018-08-16T17:39:34.286Z,4.33
2018-08-16T17:42:02.977Z,3.03
2018-08-16T17:44:31.551Z,2.80
2018-08-16T17:47:00.094Z,2.87
2018-08-16T17:49:28.627Z,3.23
2018-08-16T17:51:57.246Z,2.97
2018-08-16T17:54:25.739Z,2.97
2018-08-16T17:56:54.499Z,2.93
2018-08-16T17:59:22.913Z,2.70
2018-08-16T18:01:51.446Z,3.37
2018-08-16T18:04:19.959Z,3.07
2018-08-16T18:06:48.512Z,2.87
2018-08-16T18:09:17.046Z,3.50
2018-08-16T18:11:45.555Z,2.90
2018-08-16T18:14:14.051Z,3.20
2018-08-16T18:16:42.592Z,3.03
2018-08-16T18:19:11.130Z,3.30
2018-08-16T18:21:39.648Z,3.70
2018-08-16T18:24:08.150Z,3.30
2018-08-16T18:26:37.015Z,3.50
2018-08-16T18:29:07.488Z,3.20
2018-08-16T18:31:36.077Z,2.90
2018-08-16T18:34:04.632Z,3.37
2018-08-16T18:36:33.144Z,3.40
2018-08-16T18:39:01.630Z,3.53
2018-08-16T18:41:30.141Z,3.13
2018-08-16T18:43:59.100Z,3.40
2018-08-16T18:46:27.955Z,3.20
2018-08-16T18:49:03.468Z,3.45
2018-08-16T18:51:35.377Z,3.50
2018-08-16T18:54:05.177Z,3.80
2018-08-16T19:03:57.690Z,4.05
2018-08-16T19:19:35.129Z,3.50
2018-08-16T19:32:23.737Z,4.30
2018-08-16T19:35:07.929Z,3.70
2018-08-16T19:37:36.894Z,3.80
2018-08-16T19:43:18.913Z,4.10
2018-08-16T19:45:50.371Z,4.55
2018-08-16T19:53:15.091Z,4.07
2018-08-16T20:00:43.345Z,4.05
2018-08-16T20:25:25.429Z,3.70
2018-08-16T20:37:47.205Z,4.50
2018-08-16T20:42:44.056Z,4.00
2018-08-16T20:47:41.147Z,4.60
2018-08-16T20:55:06.866Z,4.60
2018-08-16T20:57:35.794Z,4.70
2018-08-16T21:00:05.583Z,5.70
2018-08-16T21:02:34.377Z,4.60
2018-08-16T21:05:03.466Z,4.70
2018-08-16T21:07:32.233Z,4.80
2018-08-16T21:10:00.949Z,5.17
2018-08-16T21:12:29.646Z,4.50
2018-08-16T21:14:58.549Z,4.47
2018-08-16T21:17:27.204Z,5.30
2018-08-16T21:19:55.983Z,4.30
2018-08-16T21:22:24.846Z,4.90
2018-08-16T21:27:21.732Z,4.80
2018-08-16T21:29:50.541Z,4.07
2018-08-16T21:32:19.393Z,4.40
2018-08-16T21:34:48.267Z,4.60
2018-08-16T21:37:17.040Z,5.10
2018-08-16T21:39:45.802Z,3.80
2018-08-16T21:42:14.619Z,4.67
2018-08-16T21:44:43.380Z,4.33
2018-08-16T21:47:12.374Z,4.40
2018-08-16T21:49:41.337Z,4.30
2018-08-16T21:52:11.115Z,4.20
2018-08-16T21:54:40.063Z,4.63
2018-08-16T21:57:08.823Z,4.20
2018-08-16T21:59:37.598Z,3.85
2018-08-16T22:17:03.524Z,5.10
2018-08-16T22:19:32.313Z,4.00
2018-08-16T22:24:29.081Z,3.50
2018-08-16T22:26:57.702Z,3.20
2018-08-16T22:29:26.511Z,3.70
2018-08-16T22:34:23.362Z,4.25
2018-08-16T22:36:52.027Z,3.50
2018-08-16T22:46:45.714Z,3.70
2018-08-16T22:49:14.417Z,4.00
2018-08-16T22:51:43.237Z,3.35
2018-08-16T22:54:12.088Z,3.70
2018-08-16T22:56:40.816Z,3.60
2018-08-16T22:59:09.430Z,3.80
2018-08-16T23:01:39.332Z,3.10
2018-08-16T23:04:08.136Z,3.90
2018-08-16T23:06:36.824Z,3.40
2018-08-16T23:09:06.607Z,4.25
2018-08-16T23:11:35.448Z,3.77
2018-08-16T23:14:04.381Z,3.70
2018-08-16T23:16:33.469Z,3.40
2018-08-16T23:19:02.541Z,3.80
2018-08-16T23:21:31.325Z,3.30
2018-08-16T23:24:00.054Z,3.70
2018-08-16T23:26:29.004Z,3.60
2018-08-16T23:31:26.203Z,4.50
2018-08-16T23:33:55.341Z,4.10
2018-08-16T23:36:24.301Z,3.80
2018-08-16T23:38:53.058Z,3.50
2018-08-16T23:41:21.849Z,3.97
2018-08-16T23:46:18.532Z,3.90
2018-08-16T23:48:47.660Z,3.90
2018-08-16T23:51:16.442Z,4.05
2018-08-16T23:53:45.260Z,3.90
2018-08-16T23:58:42.008Z,4.40
